sensor_id;sensor_type;location;lat;lon;timestamp;temperature;humidity
59923;DHT22;45778;51.142;3.732;2022-07-29T00:02:08;19.00;90.70
59923;DHT22;45778;51.142;3.732;2022-07-29T00:04:35;18.90;90.70
59923;DHT22;45778;51.142;3.732;2022-07-29T00:07:01;18.80;91.00
59923;DHT22;45778;51.142;3.732;2022-07-29T00:09:26;18.90;91.20
59923;DHT22;45778;51.142;3.732;2022-07-29T00:11:53;18.80;91.30
59923;DHT22;45778;51.142;3.732;2022-07-29T00:14:20;18.80;91.30
59923;DHT22;45778;51.142;3.732;2022-07-29T00:16:45;18.80;91.50
59923;DHT22;45778;51.142;3.732;2022-07-29T00:19:11;18.80;91.60
59923;DHT22;45778;51.142;3.732;2022-07-29T00:21:37;18.80;91.50
59923;DHT22;45778;51.142;3.732;2022-07-29T00:24:02;18.80;91.50
59923;DHT22;45778;51.142;3.732;2022-07-29T00:26:28;18.80;91.60
59923;DHT22;45778;51.142;3.732;2022-07-29T00:28:58;18.90;91.40
59923;DHT22;45778;51.142;3.732;2022-07-29T00:31:23;18.60;91.60
59923;DHT22;45778;51.142;3.732;2022-07-29T00:33:49;18.60;91.80
59923;DHT22;45778;51.142;3.732;2022-07-29T00:36:15;18.70;92.00
59923;DHT22;45778;51.142;3.732;2022-07-29T00:38:40;18.80;91.70
59923;DHT22;45778;51.142;3.732;2022-07-29T00:41:09;18.70;91.80
59923;DHT22;45778;51.142;3.732;2022-07-29T00:43:35;18.70;92.20
59923;DHT22;45778;51.142;3.732;2022-07-29T00:46:00;18.50;92.30
59923;DHT22;45778;51.142;3.732;2022-07-29T00:48:26;18.60;92.50
59923;DHT22;45778;51.142;3.732;2022-07-29T00:50:52;18.50;92.60
59923;DHT22;45778;51.142;3.732;2022-07-29T00:53:19;18.40;93.10
59923;DHT22;45778;51.142;3.732;2022-07-29T00:55:45;18.20;93.40
59923;DHT22;45778;51.142;3.732;2022-07-29T00:58:12;18.30;93.70
59923;DHT22;45778;51.142;3.732;2022-07-29T01:00:39;18.30;93.70
59923;DHT22;45778;51.142;3.732;2022-07-29T01:03:06;18.20;94.00
59923;DHT22;45778;51.142;3.732;2022-07-29T01:05:33;18.30;94.00
59923;DHT22;45778;51.142;3.732;2022-07-29T01:08:00;18.20;94.20
59923;DHT22;45778;51.142;3.732;2022-07-29T01:10:26;18.20;94.40
59923;DHT22;45778;51.142;3.732;2022-07-29T01:12:53;18.30;94.20
59923;DHT22;45778;51.142;3.732;2022-07-29T01:15:19;18.20;94.10
59923;DHT22;45778;51.142;3.732;2022-07-29T01:17:54;18.20;94.20
59923;DHT22;45778;51.142;3.732;2022-07-29T01:31:03;17.90;95.00
59923;DHT22;45778;51.142;3.732;2022-07-29T01:33:32;17.90;95.20
59923;DHT22;45778;51.142;3.732;2022-07-29T01:36:31;17.80;95.10
59923;DHT22;45778;51.142;3.732;2022-07-29T01:39:11;17.70;95.40
59923;DHT22;45778;51.142;3.732;2022-07-29T01:41:42;17.90;95.70
59923;DHT22;45778;51.142;3.732;2022-07-29T01:44:18;17.60;96.00
59923;DHT22;45778;51.142;3.732;2022-07-29T01:47:12;17.70;96.10
59923;DHT22;45778;51.142;3.732;2022-07-29T01:49:41;17.60;96.00
59923;DHT22;45778;51.142;3.732;2022-07-29T01:52:13;17.50;96.30
59923;DHT22;45778;51.142;3.732;2022-07-29T01:54:43;17.30;96.90
59923;DHT22;45778;51.142;3.732;2022-07-29T01:57:14;17.30;97.40
59923;DHT22;45778;51.142;3.732;2022-07-29T01:59:41;17.30;97.70
59923;DHT22;45778;51.142;3.732;2022-07-29T02:02:10;17.20;97.50
59923;DHT22;45778;51.142;3.732;2022-07-29T02:04:37;17.20;98.20
59923;DHT22;45778;51.142;3.732;2022-07-29T02:07:06;17.10;98.30
59923;DHT22;45778;51.142;3.732;2022-07-29T02:09:35;17.10;99.20
59923;DHT22;45778;51.142;3.732;2022-07-29T02:12:03;17.00;99.50
59923;DHT22;45778;51.142;3.732;2022-07-29T02:14:34;17.00;99.90
59923;DHT22;45778;51.142;3.732;2022-07-29T02:17:02;17.00;99.90
59923;DHT22;45778;51.142;3.732;2022-07-29T02:19:29;17.10;99.90
59923;DHT22;45778;51.142;3.732;2022-07-29T02:21:57;17.00;99.90
59923;DHT22;45778;51.142;3.732;2022-07-29T02:24:24;17.00;99.90
59923;DHT22;45778;51.142;3.732;2022-07-29T02:26:52;17.00;99.90
59923;DHT22;45778;51.142;3.732;2022-07-29T02:29:21;16.90;99.90
59923;DHT22;45778;51.142;3.732;2022-07-29T02:31:49;16.80;99.90
59923;DHT22;45778;51.142;3.732;2022-07-29T02:34:15;16.80;99.90
59923;DHT22;45778;51.142;3.732;2022-07-29T02:36:43;16.70;99.90
59923;DHT22;45778;51.142;3.732;2022-07-29T02:39:11;16.90;99.90
59923;DHT22;45778;51.142;3.732;2022-07-29T02:41:48;16.70;99.90
59923;DHT22;45778;51.142;3.732;2022-07-29T02:44:18;16.60;99.90
59923;DHT22;45778;51.142;3.732;2022-07-29T02:47:13;16.50;99.90
59923;DHT22;45778;51.142;3.732;2022-07-29T02:50:02;16.40;99.90
59923;DHT22;45778;51.142;3.732;2022-07-29T02:52:34;16.60;99.90
59923;DHT22;45778;51.142;3.732;2022-07-29T02:55:37;16.70;99.90
59923;DHT22;45778;51.142;3.732;2022-07-29T03:00:41;16.20;99.90
59923;DHT22;45778;51.142;3.732;2022-07-29T03:03:12;16.10;99.90
59923;DHT22;45778;51.142;3.732;2022-07-29T03:05:38;16.10;99.90
59923;DHT22;45778;51.142;3.732;2022-07-29T03:08:06;16.00;99.90
59923;DHT22;45778;51.142;3.732;2022-07-29T03:10:32;15.90;99.90
59923;DHT22;45778;51.142;3.732;2022-07-29T03:13:00;16.00;99.90
59923;DHT22;45778;51.142;3.732;2022-07-29T03:15:27;16.10;99.90
59923;DHT22;45778;51.142;3.732;2022-07-29T03:17:53;15.90;99.90
59923;DHT22;45778;51.142;3.732;2022-07-29T03:20:20;15.80;99.90
59923;DHT22;45778;51.142;3.732;2022-07-29T03:22:46;15.80;99.90
59923;DHT22;45778;51.142;3.732;2022-07-29T03:25:13;15.90;99.90
59923;DHT22;45778;51.142;3.732;2022-07-29T03:27:40;15.90;99.90
59923;DHT22;45778;51.142;3.732;2022-07-29T03:30:06;15.90;99.90
59923;DHT22;45778;51.142;3.732;2022-07-29T03:32:32;15.70;99.90
59923;DHT22;45778;51.142;3.732;2022-07-29T03:34:58;15.70;99.90
59923;DHT22;45778;51.142;3.732;2022-07-29T03:37:23;15.70;99.90
59923;DHT22;45778;51.142;3.732;2022-07-29T03:39:49;15.70;99.90
59923;DHT22;45778;51.142;3.732;2022-07-29T03:42:19;15.60;99.90
59923;DHT22;45778;51.142;3.732;2022-07-29T03:44:47;15.60;99.90
59923;DHT22;45778;51.142;3.732;2022-07-29T03:47:15;15.50;99.90
59923;DHT22;45778;51.142;3.732;2022-07-29T03:49:43;15.50;99.90
59923;DHT22;45778;51.142;3.732;2022-07-29T03:52:10;15.40;99.90
59923;DHT22;45778;51.142;3.732;2022-07-29T03:54:36;15.40;99.90
59923;DHT22;45778;51.142;3.732;2022-07-29T03:57:02;15.40;99.90
59923;DHT22;45778;51.142;3.732;2022-07-29T03:59:30;15.30;99.90
59923;DHT22;45778;51.142;3.732;2022-07-29T04:01:56;15.30;99.90
59923;DHT22;45778;51.142;3.732;2022-07-29T04:04:23;15.30;99.90
59923;DHT22;45778;51.142;3.732;2022-07-29T04:06:48;15.40;99.90
59923;DHT22;45778;51.142;3.732;2022-07-29T04:09:14;15.50;99.90
59923;DHT22;45778;51.142;3.732;2022-07-29T04:11:41;15.50;99.90
59923;DHT22;45778;51.142;3.732;2022-07-29T04:14:07;15.60;99.90
59923;DHT22;45778;51.142;3.732;2022-07-29T04:16:32;15.60;99.90
59923;DHT22;45778;51.142;3.732;2022-07-29T04:18:59;15.60;99.90
59923;DHT22;45778;51.142;3.732;2022-07-29T04:21:24;15.60;99.90
59923;DHT22;45778;51.142;3.732;2022-07-29T04:23:50;15.50;99.90
59923;DHT22;45778;51.142;3.732;2022-07-29T04:26:17;15.60;99.90
59923;DHT22;45778;51.142;3.732;2022-07-29T04:28:43;15.40;99.90
59923;DHT22;45778;51.142;3.732;2022-07-29T04:31:09;15.40;99.90
59923;DHT22;45778;51.142;3.732;2022-07-29T04:33:35;15.40;99.90
59923;DHT22;45778;51.142;3.732;2022-07-29T04:36:00;15.40;99.90
59923;DHT22;45778;51.142;3.732;2022-07-29T04:38:26;15.30;99.90
59923;DHT22;45778;51.142;3.732;2022-07-29T04:40:52;15.40;99.90
59923;DHT22;45778;51.142;3.732;2022-07-29T04:43:17;15.40;99.90
59923;DHT22;45778;51.142;3.732;2022-07-29T04:45:43;15.30;99.90
59923;DHT22;45778;51.142;3.732;2022-07-29T04:48:08;15.40;99.90
59923;DHT22;45778;51.142;3.732;2022-07-29T04:50:37;15.30;99.90
59923;DHT22;45778;51.142;3.732;2022-07-29T04:53:02;15.40;99.90
59923;DHT22;45778;51.142;3.732;2022-07-29T04:55:28;15.40;99.90
59923;DHT22;45778;51.142;3.732;2022-07-29T04:57:54;15.40;99.90
59923;DHT22;45778;51.142;3.732;2022-07-29T05:00:19;15.50;99.90
59923;DHT22;45778;51.142;3.732;2022-07-29T05:02:45;15.60;99.90
59923;DHT22;45778;51.142;3.732;2022-07-29T05:05:11;15.60;99.90
59923;DHT22;45778;51.142;3.732;2022-07-29T05:07:36;15.70;99.90
59923;DHT22;45778;51.142;3.732;2022-07-29T05:10:02;15.60;99.90
59923;DHT22;45778;51.142;3.732;2022-07-29T05:12:28;15.60;99.90
59923;DHT22;45778;51.142;3.732;2022-07-29T05:14:54;15.70;99.90
59923;DHT22;45778;51.142;3.732;2022-07-29T05:17:20;15.70;99.90
59923;DHT22;45778;51.142;3.732;2022-07-29T05:19:45;15.80;99.90
59923;DHT22;45778;51.142;3.732;2022-07-29T05:22:11;15.90;99.90
59923;DHT22;45778;51.142;3.732;2022-07-29T05:24:37;15.80;99.90
59923;DHT22;45778;51.142;3.732;2022-07-29T05:27:02;15.90;99.90
59923;DHT22;45778;51.142;3.732;2022-07-29T05:29:28;16.10;99.90
59923;DHT22;45778;51.142;3.732;2022-07-29T05:31:54;16.30;99.90
59923;DHT22;45778;51.142;3.732;2022-07-29T05:34:19;16.40;99.90
59923;DHT22;45778;51.142;3.732;2022-07-29T05:36:45;16.40;99.90
59923;DHT22;45778;51.142;3.732;2022-07-29T05:39:11;16.40;99.90
59923;DHT22;45778;51.142;3.732;2022-07-29T05:41:38;16.40;99.90
59923;DHT22;45778;51.142;3.732;2022-07-29T05:44:04;16.40;99.90
59923;DHT22;45778;51.142;3.732;2022-07-29T05:46:29;16.50;99.90
59923;DHT22;45778;51.142;3.732;2022-07-29T05:48:55;16.70;99.90
59923;DHT22;45778;51.142;3.732;2022-07-29T05:51:21;16.80;99.90
59923;DHT22;45778;51.142;3.732;2022-07-29T05:53:47;17.00;99.90
59923;DHT22;45778;51.142;3.732;2022-07-29T05:56:13;17.20;99.90
59923;DHT22;45778;51.142;3.732;2022-07-29T05:58:38;17.40;99.90
59923;DHT22;45778;51.142;3.732;2022-07-29T06:01:04;17.50;99.90
59923;DHT22;45778;51.142;3.732;2022-07-29T06:03:29;17.60;99.90
59923;DHT22;45778;51.142;3.732;2022-07-29T06:05:55;17.70;99.90
59923;DHT22;45778;51.142;3.732;2022-07-29T06:08:21;17.80;99.90
59923;DHT22;45778;51.142;3.732;2022-07-29T06:10:47;18.10;99.90
59923;DHT22;45778;51.142;3.732;2022-07-29T06:13:12;18.20;99.90
59923;DHT22;45778;51.142;3.732;2022-07-29T06:15:41;18.20;99.90
59923;DHT22;45778;51.142;3.732;2022-07-29T06:18:07;18.20;99.90
59923;DHT22;45778;51.142;3.732;2022-07-29T06:20:34;18.30;99.90
59923;DHT22;45778;51.142;3.732;2022-07-29T06:23:00;18.30;99.90
59923;DHT22;45778;51.142;3.732;2022-07-29T06:25:27;18.50;99.90
59923;DHT22;45778;51.142;3.732;2022-07-29T06:27:56;18.50;99.90
59923;DHT22;45778;51.142;3.732;2022-07-29T06:30:22;18.60;99.90
59923;DHT22;45778;51.142;3.732;2022-07-29T06:32:47;18.70;99.90
59923;DHT22;45778;51.142;3.732;2022-07-29T06:35:13;18.80;99.90
59923;DHT22;45778;51.142;3.732;2022-07-29T06:37:39;19.00;99.90
59923;DHT22;45778;51.142;3.732;2022-07-29T06:40:05;19.00;99.90
59923;DHT22;45778;51.142;3.732;2022-07-29T06:42:49;19.00;99.90
59923;DHT22;45778;51.142;3.732;2022-07-29T06:45:14;18.90;99.90
59923;DHT22;45778;51.142;3.732;2022-07-29T06:47:41;19.20;99.90
59923;DHT22;45778;51.142;3.732;2022-07-29T06:50:07;19.30;99.90
59923;DHT22;45778;51.142;3.732;2022-07-29T06:52:37;19.50;99.90
59923;DHT22;45778;51.142;3.732;2022-07-29T06:55:03;19.40;99.90
59923;DHT22;45778;51.142;3.732;2022-07-29T06:57:28;19.50;99.90
59923;DHT22;45778;51.142;3.732;2022-07-29T06:59:56;19.60;99.90
59923;DHT22;45778;51.142;3.732;2022-07-29T07:02:22;19.40;99.90
59923;DHT22;45778;51.142;3.732;2022-07-29T07:04:48;19.60;99.90
59923;DHT22;45778;51.142;3.732;2022-07-29T07:07:13;19.70;99.90
59923;DHT22;45778;51.142;3.732;2022-07-29T07:09:39;19.60;99.90
59923;DHT22;45778;51.142;3.732;2022-07-29T07:12:05;19.80;99.90
59923;DHT22;45778;51.142;3.732;2022-07-29T07:14:31;20.00;99.90
59923;DHT22;45778;51.142;3.732;2022-07-29T07:16:57;19.80;99.90
59923;DHT22;45778;51.142;3.732;2022-07-29T07:19:22;19.80;99.90
59923;DHT22;45778;51.142;3.732;2022-07-29T07:21:49;20.00;99.90
59923;DHT22;45778;51.142;3.732;2022-07-29T07:24:14;20.20;99.90
59923;DHT22;45778;51.142;3.732;2022-07-29T07:26:40;20.20;99.90
59923;DHT22;45778;51.142;3.732;2022-07-29T07:29:05;20.50;99.90
59923;DHT22;45778;51.142;3.732;2022-07-29T07:31:31;20.60;99.90
59923;DHT22;45778;51.142;3.732;2022-07-29T07:33:57;20.70;99.90
59923;DHT22;45778;51.142;3.732;2022-07-29T07:36:24;20.70;99.90
59923;DHT22;45778;51.142;3.732;2022-07-29T07:38:49;20.60;99.90
59923;DHT22;45778;51.142;3.732;2022-07-29T07:41:15;20.50;99.90
59923;DHT22;45778;51.142;3.732;2022-07-29T07:43:41;20.60;99.90
59923;DHT22;45778;51.142;3.732;2022-07-29T07:46:06;20.60;99.90
59923;DHT22;45778;51.142;3.732;2022-07-29T07:48:32;20.70;99.90
59923;DHT22;45778;51.142;3.732;2022-07-29T07:51:00;20.70;99.90
59923;DHT22;45778;51.142;3.732;2022-07-29T07:53:26;21.00;99.90
59923;DHT22;45778;51.142;3.732;2022-07-29T07:55:51;20.90;99.90
59923;DHT22;45778;51.142;3.732;2022-07-29T07:58:17;21.20;99.90
59923;DHT22;45778;51.142;3.732;2022-07-29T08:00:43;21.20;99.90
59923;DHT22;45778;51.142;3.732;2022-07-29T08:03:09;21.20;99.80
59923;DHT22;45778;51.142;3.732;2022-07-29T08:05:38;21.20;99.90
59923;DHT22;45778;51.142;3.732;2022-07-29T08:08:04;21.40;99.90
59923;DHT22;45778;51.142;3.732;2022-07-29T08:10:29;21.30;99.60
59923;DHT22;45778;51.142;3.732;2022-07-29T08:13:14;21.50;99.70
59923;DHT22;45778;51.142;3.732;2022-07-29T08:15:40;21.60;99.40
59923;DHT22;45778;51.142;3.732;2022-07-29T08:18:07;21.40;99.70
59923;DHT22;45778;51.142;3.732;2022-07-29T08:20:32;21.50;99.70
59923;DHT22;45778;51.142;3.732;2022-07-29T08:23:01;21.60;99.90
59923;DHT22;45778;51.142;3.732;2022-07-29T08:25:27;21.90;98.70
59923;DHT22;45778;51.142;3.732;2022-07-29T08:27:53;21.70;99.00
59923;DHT22;45778;51.142;3.732;2022-07-29T08:30:18;21.60;99.50
59923;DHT22;45778;51.142;3.732;2022-07-29T08:32:44;21.90;99.00
59923;DHT22;45778;51.142;3.732;2022-07-29T08:35:10;21.90;99.30
59923;DHT22;45778;51.142;3.732;2022-07-29T08:37:35;22.20;98.50
59923;DHT22;45778;51.142;3.732;2022-07-29T08:40:01;22.10;98.40
59923;DHT22;45778;51.142;3.732;2022-07-29T08:42:27;22.00;98.00
59923;DHT22;45778;51.142;3.732;2022-07-29T08:44:53;21.90;97.20
59923;DHT22;45778;51.142;3.732;2022-07-29T08:47:19;21.90;98.50
59923;DHT22;45778;51.142;3.732;2022-07-29T08:49:45;22.20;98.60
59923;DHT22;45778;51.142;3.732;2022-07-29T08:52:12;22.40;98.10
59923;DHT22;45778;51.142;3.732;2022-07-29T08:54:39;22.50;97.60
59923;DHT22;45778;51.142;3.732;2022-07-29T08:57:06;22.40;97.80
59923;DHT22;45778;51.142;3.732;2022-07-29T08:59:34;22.40;96.40
59923;DHT22;45778;51.142;3.732;2022-07-29T09:02:00;22.60;96.40
59923;DHT22;45778;51.142;3.732;2022-07-29T09:04:34;22.40;96.70
59923;DHT22;45778;51.142;3.732;2022-07-29T09:07:04;22.50;96.50
59923;DHT22;45778;51.142;3.732;2022-07-29T09:09:30;22.60;96.60
59923;DHT22;45778;51.142;3.732;2022-07-29T09:11:55;22.80;96.00
59923;DHT22;45778;51.142;3.732;2022-07-29T09:14:21;22.90;94.90
59923;DHT22;45778;51.142;3.732;2022-07-29T09:19:40;22.80;95.90
59923;DHT22;45778;51.142;3.732;2022-07-29T09:22:07;23.10;95.20
59923;DHT22;45778;51.142;3.732;2022-07-29T09:27:00;23.40;94.60
59923;DHT22;45778;51.142;3.732;2022-07-29T09:29:27;23.40;94.30
59923;DHT22;45778;51.142;3.732;2022-07-29T09:31:54;23.50;93.80
59923;DHT22;45778;51.142;3.732;2022-07-29T09:34:28;23.60;94.10
59923;DHT22;45778;51.142;3.732;2022-07-29T09:36:56;23.90;92.20
59923;DHT22;45778;51.142;3.732;2022-07-29T09:39:38;23.70;92.60
59923;DHT22;45778;51.142;3.732;2022-07-29T09:42:10;23.60;91.70
59923;DHT22;45778;51.142;3.732;2022-07-29T09:44:46;23.50;92.10
59923;DHT22;45778;51.142;3.732;2022-07-29T09:47:14;23.70;91.70
59923;DHT22;45778;51.142;3.732;2022-07-29T09:49:58;23.70;90.60
59923;DHT22;45778;51.142;3.732;2022-07-29T09:52:28;23.90;91.20
59923;DHT22;45778;51.142;3.732;2022-07-29T09:55:05;23.90;91.10
59923;DHT22;45778;51.142;3.732;2022-07-29T09:57:31;24.10;90.70
59923;DHT22;45778;51.142;3.732;2022-07-29T09:59:59;24.10;89.60
59923;DHT22;45778;51.142;3.732;2022-07-29T10:02:32;24.20;88.50
59923;DHT22;45778;51.142;3.732;2022-07-29T10:05:00;24.30;87.80
59923;DHT22;45778;51.142;3.732;2022-07-29T10:07:26;24.40;86.00
59923;DHT22;45778;51.142;3.732;2022-07-29T10:09:56;24.30;85.90
59923;DHT22;45778;51.142;3.732;2022-07-29T10:12:23;24.20;87.10
59923;DHT22;45778;51.142;3.732;2022-07-29T10:14:50;24.30;87.10
59923;DHT22;45778;51.142;3.732;2022-07-29T10:17:16;24.50;86.30
59923;DHT22;45778;51.142;3.732;2022-07-29T10:19:42;24.30;84.70
59923;DHT22;45778;51.142;3.732;2022-07-29T10:22:10;24.50;83.30
59923;DHT22;45778;51.142;3.732;2022-07-29T10:24:37;24.50;83.90
59923;DHT22;45778;51.142;3.732;2022-07-29T10:27:05;24.50;85.10
59923;DHT22;45778;51.142;3.732;2022-07-29T10:29:31;24.70;84.40
59923;DHT22;45778;51.142;3.732;2022-07-29T10:37:23;25.20;83.20
59923;DHT22;45778;51.142;3.732;2022-07-29T10:40:19;25.40;82.00
59923;DHT22;45778;51.142;3.732;2022-07-29T10:43:21;25.30;81.10
59923;DHT22;45778;51.142;3.732;2022-07-29T10:45:49;25.30;81.50
59923;DHT22;45778;51.142;3.732;2022-07-29T10:48:20;25.70;80.00
59923;DHT22;45778;51.142;3.732;2022-07-29T10:50:58;25.80;79.10
59923;DHT22;45778;51.142;3.732;2022-07-29T10:53:46;26.00;78.60
59923;DHT22;45778;51.142;3.732;2022-07-29T10:56:23;26.30;74.80
59923;DHT22;45778;51.142;3.732;2022-07-29T11:01:47;26.90;76.60
59923;DHT22;45778;51.142;3.732;2022-07-29T11:04:13;27.30;76.20
59923;DHT22;45778;51.142;3.732;2022-07-29T11:09:27;27.50;73.10
59923;DHT22;45778;51.142;3.732;2022-07-29T11:11:55;26.50;73.50
59923;DHT22;45778;51.142;3.732;2022-07-29T11:14:59;26.60;73.10
59923;DHT22;45778;51.142;3.732;2022-07-29T11:17:27;26.50;72.50
59923;DHT22;45778;51.142;3.732;2022-07-29T11:22:57;26.40;71.00
59923;DHT22;45778;51.142;3.732;2022-07-29T11:25:23;27.00;73.50
59923;DHT22;45778;51.142;3.732;2022-07-29T11:27:49;27.80;72.70
59923;DHT22;45778;51.142;3.732;2022-07-29T11:30:16;27.90;70.70
59923;DHT22;45778;51.142;3.732;2022-07-29T11:32:43;28.20;71.10
59923;DHT22;45778;51.142;3.732;2022-07-29T11:35:21;28.00;69.90
59923;DHT22;45778;51.142;3.732;2022-07-29T11:41:25;27.30;69.90
59923;DHT22;45778;51.142;3.732;2022-07-29T11:43:52;27.10;72.20
59923;DHT22;45778;51.142;3.732;2022-07-29T11:46:42;26.40;72.80
59923;DHT22;45778;51.142;3.732;2022-07-29T11:49:10;26.20;72.30
59923;DHT22;45778;51.142;3.732;2022-07-29T11:51:37;26.40;72.30
59923;DHT22;45778;51.142;3.732;2022-07-29T11:54:04;26.50;71.60
59923;DHT22;45778;51.142;3.732;2022-07-29T11:56:31;27.10;72.70
59923;DHT22;45778;51.142;3.732;2022-07-29T11:59:04;27.20;70.80
59923;DHT22;45778;51.142;3.732;2022-07-29T12:01:30;27.30;72.30
59923;DHT22;45778;51.142;3.732;2022-07-29T12:04:07;27.20;70.80
59923;DHT22;45778;51.142;3.732;2022-07-29T12:06:36;27.00;69.40
59923;DHT22;45778;51.142;3.732;2022-07-29T12:09:07;27.20;68.90
59923;DHT22;45778;51.142;3.732;2022-07-29T12:11:33;27.90;69.70
59923;DHT22;45778;51.142;3.732;2022-07-29T12:13:59;29.50;67.20
59923;DHT22;45778;51.142;3.732;2022-07-29T12:16:34;31.20;65.10
59923;DHT22;45778;51.142;3.732;2022-07-29T12:19:01;30.50;64.70
59923;DHT22;45778;51.142;3.732;2022-07-29T12:21:28;30.90;61.90
59923;DHT22;45778;51.142;3.732;2022-07-29T12:23:55;31.30;64.30
59923;DHT22;45778;51.142;3.732;2022-07-29T12:26:21;31.80;62.90
59923;DHT22;45778;51.142;3.732;2022-07-29T12:28:47;32.30;60.70
59923;DHT22;45778;51.142;3.732;2022-07-29T12:31:14;33.40;57.10
59923;DHT22;45778;51.142;3.732;2022-07-29T12:33:40;34.10;57.90
59923;DHT22;45778;51.142;3.732;2022-07-29T12:36:06;35.20;54.40
59923;DHT22;45778;51.142;3.732;2022-07-29T12:38:36;34.50;53.70
59923;DHT22;45778;51.142;3.732;2022-07-29T12:41:02;34.20;55.30
59923;DHT22;45778;51.142;3.732;2022-07-29T12:43:28;34.80;54.30
59923;DHT22;45778;51.142;3.732;2022-07-29T12:45:56;34.30;55.00
59923;DHT22;45778;51.142;3.732;2022-07-29T12:48:37;34.70;53.70
59923;DHT22;45778;51.142;3.732;2022-07-29T12:51:04;33.80;54.30
59923;DHT22;45778;51.142;3.732;2022-07-29T12:53:31;33.80;54.00
59923;DHT22;45778;51.142;3.732;2022-07-29T12:55:58;34.60;52.60
59923;DHT22;45778;51.142;3.732;2022-07-29T13:01:13;35.10;52.30
59923;DHT22;45778;51.142;3.732;2022-07-29T13:03:59;35.00;52.20
59923;DHT22;45778;51.142;3.732;2022-07-29T13:06:36;35.00;51.10
59923;DHT22;45778;51.142;3.732;2022-07-29T13:11:47;35.30;50.70
59923;DHT22;45778;51.142;3.732;2022-07-29T13:17:05;38.20;46.80
59923;DHT22;45778;51.142;3.732;2022-07-29T13:22:11;39.50;46.90
59923;DHT22;45778;51.142;3.732;2022-07-29T13:24:57;41.10;44.30
59923;DHT22;45778;51.142;3.732;2022-07-29T13:27:29;41.50;43.80
59923;DHT22;45778;51.142;3.732;2022-07-29T13:29:56;39.80;44.90
59923;DHT22;45778;51.142;3.732;2022-07-29T13:32:24;38.60;45.50
59923;DHT22;45778;51.142;3.732;2022-07-29T13:34:50;37.90;45.90
59923;DHT22;45778;51.142;3.732;2022-07-29T13:37:16;37.30;46.40
59923;DHT22;45778;51.142;3.732;2022-07-29T13:39:45;36.90;46.70
59923;DHT22;45778;51.142;3.732;2022-07-29T13:42:10;37.50;46.40
59923;DHT22;45778;51.142;3.732;2022-07-29T13:44:39;37.70;46.20
59923;DHT22;45778;51.142;3.732;2022-07-29T13:47:06;37.40;47.50
59923;DHT22;45778;51.142;3.732;2022-07-29T13:49:31;37.10;47.20
59923;DHT22;45778;51.142;3.732;2022-07-29T13:51:57;37.10;47.10
59923;DHT22;45778;51.142;3.732;2022-07-29T13:54:23;37.40;46.10
59923;DHT22;45778;51.142;3.732;2022-07-29T13:56:50;37.40;47.00
59923;DHT22;45778;51.142;3.732;2022-07-29T13:59:16;36.20;46.70
59923;DHT22;45778;51.142;3.732;2022-07-29T14:01:42;36.30;46.30
59923;DHT22;45778;51.142;3.732;2022-07-29T14:04:09;37.10;47.10
59923;DHT22;45778;51.142;3.732;2022-07-29T14:06:35;36.60;46.10
59923;DHT22;45778;51.142;3.732;2022-07-29T14:09:02;36.40;46.40
59923;DHT22;45778;51.142;3.732;2022-07-29T14:11:28;36.10;46.50
59923;DHT22;45778;51.142;3.732;2022-07-29T14:13:53;35.20;47.80
59923;DHT22;45778;51.142;3.732;2022-07-29T14:16:19;34.20;48.40
59923;DHT22;45778;51.142;3.732;2022-07-29T14:18:45;34.20;49.70
59923;DHT22;45778;51.142;3.732;2022-07-29T14:21:10;34.00;48.60
59923;DHT22;45778;51.142;3.732;2022-07-29T14:23:36;32.50;51.00
59923;DHT22;45778;51.142;3.732;2022-07-29T14:26:02;31.90;50.90
59923;DHT22;45778;51.142;3.732;2022-07-29T14:28:28;31.90;52.20
59923;DHT22;45778;51.142;3.732;2022-07-29T14:30:54;33.20;50.00
59923;DHT22;45778;51.142;3.732;2022-07-29T14:33:20;33.10;48.80
59923;DHT22;45778;51.142;3.732;2022-07-29T14:35:46;34.90;47.80
59923;DHT22;45778;51.142;3.732;2022-07-29T14:38:11;34.20;48.30
59923;DHT22;45778;51.142;3.732;2022-07-29T14:40:37;34.70;49.60
59923;DHT22;45778;51.142;3.732;2022-07-29T14:43:03;35.60;48.30
59923;DHT22;45778;51.142;3.732;2022-07-29T14:45:29;36.20;46.40
59923;DHT22;45778;51.142;3.732;2022-07-29T14:47:55;35.50;47.60
59923;DHT22;45778;51.142;3.732;2022-07-29T14:50:20;34.90;47.80
59923;DHT22;45778;51.142;3.732;2022-07-29T14:52:46;33.70;50.10
59923;DHT22;45778;51.142;3.732;2022-07-29T14:55:12;34.80;48.10
59923;DHT22;45778;51.142;3.732;2022-07-29T14:57:38;33.60;49.90
59923;DHT22;45778;51.142;3.732;2022-07-29T15:00:05;33.30;49.90
59923;DHT22;45778;51.142;3.732;2022-07-29T15:02:33;33.40;50.70
59923;DHT22;45778;51.142;3.732;2022-07-29T15:04:58;33.60;49.50
59923;DHT22;45778;51.142;3.732;2022-07-29T15:07:24;34.00;50.10
59923;DHT22;45778;51.142;3.732;2022-07-29T15:09:49;34.60;49.30
59923;DHT22;45778;51.142;3.732;2022-07-29T15:12:15;35.20;48.30
59923;DHT22;45778;51.142;3.732;2022-07-29T15:14:41;35.50;48.50
59923;DHT22;45778;51.142;3.732;2022-07-29T15:17:06;35.40;48.10
59923;DHT22;45778;51.142;3.732;2022-07-29T15:19:33;35.20;48.30
59923;DHT22;45778;51.142;3.732;2022-07-29T15:21:59;34.70;48.70
59923;DHT22;45778;51.142;3.732;2022-07-29T15:24:25;33.70;49.50
59923;DHT22;45778;51.142;3.732;2022-07-29T15:26:51;34.80;49.40
59923;DHT22;45778;51.142;3.732;2022-07-29T15:29:16;34.70;48.80
59923;DHT22;45778;51.142;3.732;2022-07-29T15:31:42;35.10;48.00
59923;DHT22;45778;51.142;3.732;2022-07-29T15:34:08;33.60;48.80
59923;DHT22;45778;51.142;3.732;2022-07-29T15:36:34;34.30;50.00
59923;DHT22;45778;51.142;3.732;2022-07-29T15:39:00;34.90;48.00
59923;DHT22;45778;51.142;3.732;2022-07-29T15:41:25;34.60;48.20
59923;DHT22;45778;51.142;3.732;2022-07-29T15:43:51;34.90;47.90
59923;DHT22;45778;51.142;3.732;2022-07-29T15:46:18;34.80;48.20
59923;DHT22;45778;51.142;3.732;2022-07-29T15:49:03;34.10;48.10
59923;DHT22;45778;51.142;3.732;2022-07-29T15:51:29;33.80;47.90
59923;DHT22;45778;51.142;3.732;2022-07-29T15:53:55;33.60;48.80
59923;DHT22;45778;51.142;3.732;2022-07-29T15:56:21;34.80;48.30
59923;DHT22;45778;51.142;3.732;2022-07-29T15:58:47;35.80;46.80
59923;DHT22;45778;51.142;3.732;2022-07-29T16:01:13;34.50;47.20
59923;DHT22;45778;51.142;3.732;2022-07-29T16:03:39;35.10;47.80
59923;DHT22;45778;51.142;3.732;2022-07-29T16:06:05;34.40;48.10
59923;DHT22;45778;51.142;3.732;2022-07-29T16:08:31;34.70;48.10
59923;DHT22;45778;51.142;3.732;2022-07-29T16:10:56;32.40;49.40
59923;DHT22;45778;51.142;3.732;2022-07-29T16:13:22;31.10;51.00
59923;DHT22;45778;51.142;3.732;2022-07-29T16:15:48;31.40;51.30
59923;DHT22;45778;51.142;3.732;2022-07-29T16:18:13;32.10;51.00
59923;DHT22;45778;51.142;3.732;2022-07-29T16:20:40;32.50;51.40
59923;DHT22;45778;51.142;3.732;2022-07-29T16:23:06;32.50;50.40